Time;durP1;ratioP1;P1;durP2;ratioP2;P2;SDS_P1;SDS_P2;PMS_P1;PMS_P2;Temp;Humidity;BMP_temperature;BMP_pressure;BME280_temperature;BME280_humidity;BME280_pressure;Samples;Min_cycle;Max_cycle;Signal;HPM_P1;HPM_P2
2021/12/30 00:01:50;;;;;;;3.30;3.10;;;;;;;6.51;71.11;94320.81;5019406;28;20202;-61
2021/12/30 00:04:18;;;;;;;3.13;2.92;;;;;;;6.40;71.63;94315.00;5036539;28;20193;-61
2021/12/30 00:06:45;;;;;;;3.28;3.08;;;;;;;6.43;71.64;94317.06;5019390;28;20206;-61
2021/12/30 00:09:14;;;;;;;2.90;2.70;;;;;;;6.45;71.44;94314.75;5036422;28;20202;-62
2021/12/30 00:11:42;;;;;;;3.10;2.90;;;;;;;6.47;70.98;94315.22;5036287;28;20552;-62
2021/12/30 00:14:09;;;;;;;3.00;2.80;;;;;;;6.38;71.28;94308.25;5019006;28;20209;-62
2021/12/30 00:16:36;;;;;;;2.95;2.75;;;;;;;6.39;71.01;94313.41;5035800;28;20238;-60
2021/12/30 00:19:03;;;;;;;3.28;3.08;;;;;;;6.38;70.92;94314.53;5019363;28;20212;-61
2021/12/30 00:21:31;;;;;;;3.08;2.88;;;;;;;6.35;71.45;94315.22;5036273;28;20221;-62
2021/12/30 00:23:58;;;;;;;3.03;2.83;;;;;;;6.38;71.24;94321.94;5036020;28;20175;-62
2021/12/30 00:26:25;;;;;;;2.90;2.70;;;;;;;6.35;70.69;94328.09;5018518;28;20203;-61
2021/12/30 00:28:52;;;;;;;3.05;2.85;;;;;;;6.31;70.75;94328.00;5018778;28;20210;-62
2021/12/30 00:31:19;;;;;;;2.80;2.60;;;;;;;6.31;70.88;94328.00;5035911;28;20191;-62
2021/12/30 00:33:46;;;;;;;2.83;2.65;;;;;;;6.34;71.18;94335.53;5018659;28;20218;-62
2021/12/30 00:36:13;;;;;;;2.83;2.63;;;;;;;6.34;71.28;94335.53;5035526;28;20201;-62
2021/12/30 00:38:43;;;;;;;2.80;2.60;;;;;;;6.32;70.69;94331.53;5035854;28;20210;-62
2021/12/30 00:41:11;;;;;;;2.88;2.67;;;;;;;6.35;71.05;94331.66;5035813;28;20183;-63
2021/12/30 00:43:39;;;;;;;2.70;2.50;;;;;;;6.38;71.12;94343.88;5018095;28;20194;-61
2021/12/30 00:46:06;;;;;;;2.78;2.58;;;;;;;6.34;70.50;94332.78;5035276;28;20198;-61
2021/12/30 00:48:33;;;;;;;2.65;2.53;;;;;;;6.32;70.95;94342.50;5018029;28;20194;-61
2021/12/30 00:51:00;;;;;;;3.47;3.20;;;;;;;6.33;70.87;94338.63;5035789;28;20197;-62
2021/12/30 00:53:27;;;;;;;3.15;2.88;;;;;;;6.32;71.02;94348.78;5018286;28;20225;-61
2021/12/30 00:55:55;;;;;;;3.10;2.90;;;;;;;6.33;71.03;94344.91;5018206;28;20594;-60
2021/12/30 00:58:22;;;;;;;2.85;2.65;;;;;;;6.31;70.79;94343.63;5035489;28;20201;-61
2021/12/30 01:00:49;;;;;;;3.13;2.92;;;;;;;6.31;70.75;94344.44;5035570;28;20187;-61
2021/12/30 01:03:17;;;;;;;2.90;2.70;;;;;;;6.31;70.94;94344.44;5035393;28;20194;-61
2021/12/30 01:05:45;;;;;;;2.60;2.50;;;;;;;6.34;70.83;94360.19;5018163;28;20206;-60
2021/12/30 01:08:12;;;;;;;2.42;2.33;;;;;;;6.33;70.98;94355.84;5035105;28;20187;-60
2021/12/30 01:10:39;;;;;;;2.70;2.50;;;;;;;6.32;70.56;94354.28;5035036;28;20520;-61
2021/12/30 01:13:15;;;;;;;2.47;2.28;;;;;;;6.32;70.95;94348.78;5035352;28;20178;-61
2021/12/30 01:15:56;;;;;;;2.40;2.30;;;;;;;6.33;70.77;94355.84;5035336;28;20248;-61
2021/12/30 01:18:29;;;;;;;2.35;2.25;;;;;;;6.32;70.60;94354.28;5035179;28;20209;-61
2021/12/30 01:21:15;;;;;;;2.70;2.50;;;;;;;6.33;70.70;94360.53;5035222;28;20194;-61
2021/12/30 01:23:42;;;;;;;2.75;2.55;;;;;;;6.31;70.83;94358.13;5035157;28;20186;-61
2021/12/30 01:26:10;;;;;;;2.47;2.38;;;;;;;6.32;70.20;94358.91;5035145;28;20198;-61
2021/12/30 01:28:38;;;;;;;2.70;2.50;;;;;;;6.32;70.70;94361.66;5018020;28;20202;-61
2021/12/30 01:31:06;;;;;;;2.40;2.30;;;;;;;6.31;70.78;94355.38;5034791;28;20197;-61
2021/12/30 01:33:33;;;;;;;2.50;2.30;;;;;;;6.33;70.67;94366.81;5017683;28;20222;-61
2021/12/30 01:36:00;;;;;;;2.45;2.00;;;;;;;6.37;71.00;94369.66;5035001;28;20221;-61
2021/12/30 01:38:27;;;;;;;2.38;2.28;;;;;;;6.37;70.42;94366.94;5034790;28;20182;-61
2021/12/30 01:40:55;;;;;;;2.38;2.25;;;;;;;6.37;70.54;94370.47;5035040;28;20191;-61
2021/12/30 01:43:22;;;;;;;2.40;2.30;;;;;;;6.32;70.32;94372.63;5035002;28;20718;-61
2021/12/30 01:45:51;;;;;;;2.30;2.10;;;;;;;6.31;70.67;94371.81;5017665;28;20198;-60
2021/12/30 01:48:18;;;;;;;2.10;2.00;;;;;;;6.36;71.00;94373.56;5017493;28;20203;-61
2021/12/30 01:50:45;;;;;;;2.85;2.65;;;;;;;6.38;70.75;94371.25;5034914;28;20192;-61
2021/12/30 01:53:12;;;;;;;2.25;2.15;;;;;;;6.33;70.69;94369.56;5034939;28;20190;-61
2021/12/30 01:55:41;;;;;;;2.08;1.98;;;;;;;6.35;70.70;94380.16;5038296;28;20202;-61
2021/12/30 01:58:09;;;;;;;2.28;2.15;;;;;;;6.32;70.30;94372.63;5021561;28;20609;-61
2021/12/30 02:00:38;;;;;;;2.42;2.22;;;;;;;6.30;70.89;94372.19;5021978;28;20532;-61
2021/12/30 02:03:06;;;;;;;2.20;2.10;;;;;;;6.30;70.66;94374.91;5021834;28;20202;-61
2021/12/30 02:05:33;;;;;;;2.50;2.30;;;;;;;6.31;70.70;94371.81;5021559;28;20198;-61
2021/12/30 02:08:00;;;;;;;2.58;2.38;;;;;;;6.35;70.71;94372.72;5038364;28;20630;-61
2021/12/30 02:10:29;;;;;;;2.28;2.17;;;;;;;6.30;70.34;94372.97;5021386;28;20220;-61
2021/12/30 02:12:56;;;;;;;2.40;2.20;;;;;;;6.30;70.70;94375.72;5021739;28;20198;-61
2021/12/30 02:15:23;;;;;;;2.17;2.08;;;;;;;6.26;70.63;94385.75;5021208;28;20237;-61
2021/12/30 02:17:51;;;;;;;2.20;2.00;;;;;;;6.26;71.02;94381.06;5020918;28;20252;-61
2021/12/30 02:20:49;;;;;;;2.20;2.10;;;;;;;6.30;71.22;94375.72;5038709;28;20253;-61
2021/12/30 02:23:18;;;;;;;2.50;2.30;;;;;;;6.31;71.04;94373.75;5019980;28;20213;-61
2021/12/30 02:25:46;;;;;;;2.42;2.28;;;;;;;6.32;71.08;94386.31;5021133;28;20183;-61
2021/12/30 02:28:15;;;;;;;2.60;2.40;;;;;;;6.34;70.70;94379.34;5020804;28;20194;-61
2021/12/30 02:30:43;;;;;;;2.60;2.40;;;;;;;6.35;71.13;94377.41;5020947;28;20198;-61
2021/12/30 02:33:11;;;;;;;2.10;1.90;;;;;;;6.29;70.71;94385.06;5020801;28;20203;-61
2021/12/30 02:35:38;;;;;;;2.10;2.00;;;;;;;6.28;71.34;94391.66;5037909;28;20202;-62
2021/12/30 02:38:06;;;;;;;2.13;2.03;;;;;;;6.29;71.47;94387.81;5020834;28;20209;-62
2021/12/30 02:40:38;;;;;;;2.17;2.08;;;;;;;6.26;71.10;94388.50;5037840;28;20206;-61
2021/12/30 02:43:06;;;;;;;2.20;2.10;;;;;;;6.21;71.16;94383.25;5038066;28;20179;-61
2021/12/30 02:45:33;;;;;;;2.20;2.10;;;;;;;6.23;71.13;94400.13;5037751;28;20192;-61
2021/12/30 02:48:00;;;;;;;2.10;2.00;;;;;;;6.25;71.73;94395.91;5037971;28;20190;-61
2021/12/30 02:50:26;;;;;;;2.20;2.10;;;;;;;6.29;71.56;94396.03;5037606;28;20561;-61
2021/12/30 02:52:53;;;;;;;2.15;2.05;;;;;;;6.31;71.03;94409.38;5037588;28;20258;-61
2021/12/30 02:55:22;;;;;;;2.25;2.13;;;;;;;6.31;71.15;94407.44;5037713;28;20218;-61
2021/12/30 02:57:48;;;;;;;2.00;1.90;;;;;;;6.30;71.53;94408.56;5020578;28;20206;-61
2021/12/30 03:00:16;;;;;;;2.15;2.00;;;;;;;6.29;71.49;94409.72;5020367;28;20198;-61
2021/12/30 03:02:43;;;;;;;2.30;2.20;;;;;;;6.30;71.29;94403.09;5020047;28;20202;-61
2021/12/30 03:05:18;;;;;;;2.30;2.10;;;;;;;6.29;71.40;94412.47;5037345;28;20179;-60
2021/12/30 03:07:45;;;;;;;2.17;1.98;;;;;;;6.28;71.24;94410.84;5019885;28;20195;-61
2021/12/30 03:10:15;;;;;;;2.17;2.08;;;;;;;6.28;71.35;94413.56;5020133;28;20204;-61
2021/12/30 03:12:43;;;;;;;2.30;2.20;;;;;;;6.24;71.24;94418.16;5037587;28;20205;-61
2021/12/30 03:15:12;;;;;;;2.30;2.20;;;;;;;6.22;71.67;94420.44;5037178;28;20246;-61
2021/12/30 03:17:39;;;;;;;2.42;2.22;;;;;;;6.26;71.43;94426.84;5037523;28;20197;-61
2021/12/30 03:20:09;;;;;;;2.38;2.17;;;;;;;6.27;71.73;94436.63;5019678;28;20194;-61
2021/12/30 03:22:37;;;;;;;2.13;2.03;;;;;;;6.27;71.30;94434.69;5020547;28;20182;-61
2021/12/30 03:25:05;;;;;;;2.40;2.30;;;;;;;6.26;71.64;94435.84;5020364;28;20221;-61
2021/12/30 03:27:32;;;;;;;2.25;2.15;;;;;;;6.26;71.37;94441.31;5037109;28;20183;-61
2021/12/30 03:30:01;;;;;;;2.10;2.00;;;;;;;6.29;71.42;94437.13;5019897;28;20194;-61
2021/12/30 03:32:28;;;;;;;2.20;2.10;;;;;;;6.28;71.79;94438.22;5019843;28;20201;-61
2021/12/30 03:34:55;;;;;;;2.70;2.50;;;;;;;6.27;71.41;94433.91;5037008;28;20217;-61
2021/12/30 03:37:22;;;;;;;2.60;2.40;;;;;;;6.24;71.87;94438.09;5037040;28;20190;-61
2021/12/30 03:39:49;;;;;;;2.60;2.50;;;;;;;6.25;71.46;94441.69;5019748;28;20206;-61
2021/12/30 03:42:17;;;;;;;2.60;2.40;;;;;;;6.26;71.57;94441.31;5019529;28;20203;-61
2021/12/30 03:44:44;;;;;;;2.70;2.50;;;;;;;6.26;71.76;94443.25;5037055;28;20187;-61
2021/12/30 03:47:16;;;;;;;2.58;2.47;;;;;;;6.24;71.55;94440.84;5036535;28;20195;-61
2021/12/30 03:49:45;;;;;;;2.80;2.60;;;;;;;6.26;71.79;94448.75;5019447;28;20195;-61
2021/12/30 03:52:15;;;;;;;2.78;2.60;;;;;;;6.27;71.85;94448.38;5019427;28;20204;-60
2021/12/30 03:54:42;;;;;;;2.67;2.47;;;;;;;6.24;71.83;94454.53;5019010;28;20265;-61
2021/12/30 03:57:09;;;;;;;2.97;2.78;;;;;;;6.23;71.95;94449.41;5036719;28;20197;-62
2021/12/30 03:59:36;;;;;;;2.78;2.58;;;;;;;6.24;71.73;94451.00;5036602;28;20174;-62
2021/12/30 04:02:03;;;;;;;3.05;2.80;;;;;;;6.23;72.10;94461.16;5036525;28;20194;-62
2021/12/30 04:04:33;;;;;;;2.72;2.53;;;;;;;6.24;72.11;94467.44;5018973;28;20197;-62
2021/12/30 04:07:01;;;;;;;2.75;2.55;;;;;;;6.22;71.85;94472.47;5036569;28;20187;-62
2021/12/30 04:09:27;;;;;;;2.85;2.65;;;;;;;6.23;72.10;94471.31;5036704;28;20194;-62
2021/12/30 04:11:54;;;;;;;2.60;2.40;;;;;;;6.21;71.82;94473.63;5036080;28;20599;-62
2021/12/30 04:14:41;;;;;;;3.05;2.85;;;;;;;6.20;72.35;94472.00;5035852;28;20248;-63
2021/12/30 04:17:28;;;;;;;2.95;2.70;;;;;;;6.18;72.05;94482.50;5035289;28;20226;-62
2021/12/30 04:20:17;;;;;;;2.70;2.50;;;;;;;6.21;71.99;94498.25;5036471;28;20194;-63
2021/12/30 04:23:03;;;;;;;2.88;2.67;;;;;;;6.22;72.02;94502.59;5035886;28;20198;-62
2021/12/30 04:25:50;;;;;;;3.00;2.80;;;;;;;6.20;72.12;94508.41;5035994;28;20202;-63
2021/12/30 04:28:37;;;;;;;2.72;2.53;;;;;;;6.21;72.25;94512.75;5035992;28;20202;-62
2021/12/30 04:31:24;;;;;;;2.63;2.42;;;;;;;6.20;72.15;94519.34;5035997;28;20213;-62
2021/12/30 04:34:11;;;;;;;3.00;2.70;;;;;;;6.22;71.97;94516.28;5035778;28;20642;-62
2021/12/30 04:36:59;;;;;;;2.80;2.60;;;;;;;6.20;71.09;94524.03;5035748;28;20194;-62
2021/12/30 04:39:46;;;;;;;2.45;2.35;;;;;;;6.19;71.73;94525.97;5035601;28;20210;-62
2021/12/30 04:42:33;;;;;;;2.80;2.60;;;;;;;6.18;71.03;94523.59;5035631;28;20213;-63
2021/12/30 04:45:20;;;;;;;2.65;2.50;;;;;;;6.13;71.06;94530.06;5035449;28;20195;-62
2021/12/30 04:48:07;;;;;;;2.72;2.53;;;;;;;6.11;71.28;94529.59;5035548;28;20248;-62
2021/12/30 04:50:54;;;;;;;2.70;2.50;;;;;;;6.12;71.10;94538.63;5035901;28;20205;-62
2021/12/30 04:53:42;;;;;;;2.67;2.50;;;;;;;6.12;71.05;94535.88;5035417;28;20268;-63
2021/12/30 04:56:29;;;;;;;2.70;2.50;;;;;;;6.10;71.15;94544.44;5035910;28;20230;-62
2021/12/30 04:59:15;;;;;;;2.72;2.53;;;;;;;6.12;71.45;94555.03;5035493;28;20194;-62
2021/12/30 05:01:50;;;;;;;2.90;2.70;;;;;;;6.12;71.18;94555.84;5035350;28;20194;-61
2021/12/30 05:04:17;;;;;;;2.80;2.60;;;;;;;6.10;71.18;94558.13;5035393;28;20205;-62
2021/12/30 05:06:44;;;;;;;2.33;2.22;;;;;;;6.10;71.39;94560.88;5035483;28;20186;-61
2021/12/30 05:09:12;;;;;;;2.63;2.42;;;;;;;6.11;71.19;94567.13;5035467;28;20212;-61
2021/12/30 05:11:41;;;;;;;2.70;2.50;;;;;;;6.09;71.16;94570.19;5017880;28;20537;-61
2021/12/30 05:14:08;;;;;;;3.03;2.83;;;;;;;6.11;71.27;94569.88;5035360;28;20191;-62
2021/12/30 05:16:35;;;;;;;2.65;2.50;;;;;;;6.11;70.88;94567.94;5034798;28;20254;-61
2021/12/30 05:19:02;;;;;;;2.70;2.50;;;;;;;6.12;71.06;94568.72;5035002;28;20186;-62
2021/12/30 05:21:29;;;;;;;3.55;3.35;;;;;;;6.12;70.95;94572.25;5017629;28;20607;-61
2021/12/30 05:23:56;;;;;;;2.90;2.70;;;;;;;6.11;70.66;94578.88;5034878;28;20209;-62
2021/12/30 05:26:27;;;;;;;3.50;3.20;;;;;;;6.10;70.55;94581.94;5034836;28;20578;-65
2021/12/30 05:28:54;;;;;;;3.38;3.17;;;;;;;6.10;71.57;94587.41;5017451;28;20213;-62
2021/12/30 05:31:21;;;;;;;3.20;3.00;;;;;;;6.09;71.15;94592.09;5017784;28;20198;-62
2021/12/30 05:33:48;;;;;;;3.47;3.17;;;;;;;6.08;71.16;94595.19;5017703;28;20202;-63
2021/12/30 05:36:15;;;;;;;3.15;2.95;;;;;;;6.07;70.96;94597.13;5017871;28;20222;-63
2021/12/30 05:38:42;;;;;;;3.45;3.22;;;;;;;6.08;70.99;94603.41;5017657;28;20276;-63
2021/12/30 05:41:08;;;;;;;3.58;3.28;;;;;;;6.09;71.13;94605.00;5017359;28;20607;-63
2021/12/30 05:43:37;;;;;;;4.05;3.75;;;;;;;6.08;71.28;94606.94;5034903;28;20192;-64
2021/12/30 05:46:04;;;;;;;3.47;3.28;;;;;;;6.02;70.77;94620.00;5017540;28;20195;-63
2021/12/30 05:48:31;;;;;;;4.10;3.70;;;;;;;6.03;71.03;94618.91;5034962;28;20186;-63
2021/12/30 05:51:00;;;;;;;3.90;3.63;;;;;;;6.03;70.64;94623.56;5034960;28;20202;-63
2021/12/30 05:53:27;;;;;;;3.85;3.55;;;;;;;6.03;71.13;94627.13;5034738;28;20174;-63
2021/12/30 05:55:54;;;;;;;4.00;3.70;;;;;;;6.05;70.90;94624.03;5034770;28;20210;-63
2021/12/30 05:58:21;;;;;;;4.22;3.92;;;;;;;6.05;70.99;94626.78;5034788;28;20213;-63
2021/12/30 06:00:50;;;;;;;4.45;4.07;;;;;;;6.07;70.85;94623.72;5017760;28;20210;-63
2021/12/30 06:03:19;;;;;;;4.47;4.18;;;;;;;6.06;70.46;94625.63;5035017;28;20210;-63
2021/12/30 06:05:46;;;;;;;4.10;3.80;;;;;;;6.08;70.60;94639.00;5017079;28;20249;-63
2021/12/30 06:08:13;;;;;;;3.33;3.13;;;;;;;6.08;70.83;94644.47;5018035;28;20190;-63
2021/12/30 06:10:40;;;;;;;3.90;3.60;;;;;;;6.06;70.36;94652.19;5017592;28;20205;-63
2021/12/30 06:13:07;;;;;;;3.20;3.00;;;;;;;6.02;71.05;94649.34;5017604;28;20237;-64
2021/12/30 06:15:34;;;;;;;3.50;3.30;;;;;;;6.00;70.92;94654.34;5034370;28;20238;-63
2021/12/30 06:18:02;;;;;;;3.65;3.38;;;;;;;6.05;70.83;94662.34;5034675;28;20175;-63
2021/12/30 06:20:30;;;;;;;3.33;3.13;;;;;;;6.06;70.59;94674.91;5034718;28;20202;-63
2021/12/30 06:22:58;;;;;;;2.92;2.70;;;;;;;6.03;70.83;94679.13;5017398;28;20215;-62
2021/12/30 06:25:25;;;;;;;3.50;3.20;;;;;;;6.04;70.60;94679.94;5034613;28;20194;-62
2021/12/30 06:27:51;;;;;;;3.30;3.00;;;;;;;6.06;70.43;94693.28;5017152;28;20213;-62
2021/12/30 06:30:18;;;;;;;4.50;4.10;;;;;;;6.07;70.61;94697.63;5034572;28;20191;-62
2021/12/30 06:32:45;;;;;;;3.05;2.85;;;;;;;6.03;70.32;94701.03;5034779;28;20202;-62
2021/12/30 06:35:13;;;;;;;3.00;2.80;;;;;;;6.02;70.45;94707.63;5017204;28;20221;-64
2021/12/30 06:37:40;;;;;;;3.25;3.00;;;;;;;5.99;70.61;94708.31;5034189;28;20539;-62
2021/12/30 06:40:09;;;;;;;3.00;2.80;;;;;;;6.01;71.01;94716.97;5017477;28;20206;-60
2021/12/30 06:42:36;;;;;;;3.10;2.90;;;;;;;6.07;71.26;94719.53;5037621;28;20205;-62
2021/12/30 06:45:04;;;;;;;3.13;2.92;;;;;;;6.12;70.63;94724.81;5038143;28;20190;-61
2021/12/30 06:47:30;;;;;;;4.10;3.80;;;;;;;6.03;71.15;94725.69;5020817;28;20203;-60
2021/12/30 06:50:01;;;;;;;9.30;8.50;;;;;;;6.06;70.71;94732.41;5020550;28;20206;-65
2021/12/30 06:52:30;;;;;;;15.63;14.43;;;;;;;5.95;69.11;94739.41;5037958;28;20210;-63
2021/12/30 06:54:57;;;;;;;20.13;18.42;;;;;;;5.87;69.71;94734.75;5037816;28;20199;-63
2021/12/30 06:57:23;;;;;;;19.05;17.45;;;;;;;5.83;68.72;94737.34;5037650;28;20545;-62
2021/12/30 06:59:50;;;;;;;12.95;11.70;;;;;;;5.77;68.38;94744.97;5038854;28;20194;-63
2021/12/30 07:02:17;;;;;;;14.38;12.88;;;;;;;5.77;67.88;94753.19;5037520;28;20183;-63
2021/12/30 07:04:44;;;;;;;21.38;18.75;;;;;;;5.79;66.75;94759.09;5038222;28;20190;-63
2021/12/30 07:07:11;;;;;;;16.65;15.15;;;;;;;5.79;66.64;94761.84;5037576;28;20205;-67
2021/12/30 07:09:39;;;;;;;23.42;21.45;;;;;;;5.75;67.30;94771.84;5020289;28;20194;-66
2021/12/30 07:12:07;;;;;;;26.15;24.05;;;;;;;5.71;67.42;94776.38;5037637;28;20198;-65
2021/12/30 07:14:34;;;;;;;21.92;20.00;;;;;;;5.72;67.46;94782.66;5020602;28;20202;-63
2021/12/30 07:17:01;;;;;;;19.42;17.65;;;;;;;5.69;67.23;94788.78;5037370;28;20244;-63
2021/12/30 07:19:28;;;;;;;17.27;15.68;;;;;;;5.68;66.50;94789.91;5037518;28;20222;-63
2021/12/30 07:21:54;;;;;;;18.45;16.75;;;;;;;5.65;67.41;94793.28;5038184;28;20183;-63
2021/12/30 07:24:21;;;;;;;14.93;13.52;;;;;;;5.66;66.95;94801.16;5019982;28;20205;-63
2021/12/30 07:26:50;;;;;;;17.25;15.65;;;;;;;5.69;66.57;94810.66;5038339;28;20236;-63
2021/12/30 07:29:17;;;;;;;18.48;16.67;;;;;;;5.69;67.16;94807.94;5037498;28;20197;-64
2021/12/30 07:31:44;;;;;;;19.58;17.67;;;;;;;5.69;67.17;94806.00;5020110;28;20547;-64
2021/12/30 07:34:11;;;;;;;20.70;18.60;;;;;;;5.71;66.65;94817.41;5020477;28;20186;-64
2021/12/30 07:36:38;;;;;;;24.73;22.13;;;;;;;5.66;66.96;94814.06;5037620;28;20273;-64
2021/12/30 07:39:05;;;;;;;28.73;25.60;;;;;;;5.66;67.10;94814.06;5020328;28;20293;-64
2021/12/30 07:41:32;;;;;;;27.42;24.63;;;;;;;5.69;66.95;94819.66;5037788;28;20179;-64
2021/12/30 07:44:00;;;;;;;24.13;21.73;;;;;;;5.68;67.90;94828.22;5037507;28;20210;-68
2021/12/30 07:46:27;;;;;;;32.13;28.73;;;;;;;5.70;67.76;94831.41;5019961;28;20190;-64
2021/12/30 07:48:54;;;;;;;37.38;33.42;;;;;;;5.70;67.27;94836.88;5020054;28;20223;-63
2021/12/30 07:51:21;;;;;;;31.58;28.35;;;;;;;5.71;66.82;94836.56;5036635;28;20499;-63
2021/12/30 07:53:48;;;;;;;35.45;31.95;;;;;;;5.72;67.06;94840.13;5019215;28;20201;-63
2021/12/30 07:56:14;;;;;;;30.40;27.35;;;;;;;5.76;67.12;94839.13;5020208;28;20210;-63
2021/12/30 07:58:41;;;;;;;27.38;24.80;;;;;;;5.77;67.21;94845.38;5037693;28;20186;-63
2021/12/30 08:01:09;;;;;;;16.30;14.73;;;;;;;5.77;66.84;94848.97;5020013;28;20206;-63
2021/12/30 08:03:36;;;;;;;13.40;12.15;;;;;;;5.75;66.55;94855.88;5019185;28;20210;-63
2021/12/30 08:06:03;;;;;;;8.82;8.13;;;;;;;5.81;65.59;94854.59;5037204;28;20182;-65
2021/12/30 08:08:30;;;;;;;8.30;7.50;;;;;;;5.79;65.32;94849.41;5036876;28;20277;-66
2021/12/30 08:10:57;;;;;;;10.90;9.93;;;;;;;5.76;65.83;94857.47;5036898;28;20182;-63
2021/12/30 08:13:25;;;;;;;9.63;8.93;;;;;;;5.76;65.50;94860.22;5036481;28;20206;-63
2021/12/30 08:15:52;;;;;;;11.13;10.30;;;;;;;5.79;65.50;94856.84;5035836;28;20752;-64
2021/12/30 08:18:20;;;;;;;9.80;9.10;;;;;;;5.76;65.96;94862.94;5036471;28;20242;-63
2021/12/30 08:20:47;;;;;;;7.90;7.30;;;;;;;5.74;65.44;94873.44;5019202;28;20209;-63
2021/12/30 08:23:15;;;;;;;6.45;5.90;;;;;;;5.70;65.96;94872.47;5018915;28;20198;-63
2021/12/30 08:25:49;;;;;;;5.78;5.20;;;;;;;5.66;66.02;94885.19;5036023;28;20629;-63
2021/12/30 08:28:16;;;;;;;5.95;5.40;;;;;;;5.64;66.32;94882.78;5018760;28;20259;-65
2021/12/30 08:30:42;;;;;;;5.00;4.50;;;;;;;5.66;65.33;94896.13;5036396;28;20196;-64
2021/12/30 08:33:09;;;;;;;5.05;4.65;;;;;;;5.70;64.97;94899.81;5036285;28;20183;-63
2021/12/30 08:35:38;;;;;;;5.32;4.50;;;;;;;5.74;64.50;94901.59;5019104;28;20233;-63
2021/12/30 08:38:04;;;;;;;4.75;4.32;;;;;;;5.70;65.62;94908.03;5018780;28;20198;-63
2021/12/30 08:40:32;;;;;;;5.90;5.20;;;;;;;5.70;64.82;94910.78;5019122;28;20194;-64
2021/12/30 08:42:59;;;;;;;6.60;6.00;;;;;;;5.72;64.61;94912.06;5035634;28;20187;-64
2021/12/30 08:45:25;;;;;;;9.68;8.00;;;;;;;5.77;64.32;94917.38;5018130;28;20198;-64
2021/12/30 08:47:52;;;;;;;8.65;7.85;;;;;;;5.71;64.07;94918.66;5019176;28;20256;-63
2021/12/30 08:50:19;;;;;;;9.02;8.23;;;;;;;5.71;64.80;94920.59;5019259;28;20199;-64
2021/12/30 08:52:48;;;;;;;9.85;8.85;;;;;;;5.66;64.84;94920.75;5036255;28;20186;-63
2021/12/30 08:55:15;;;;;;;12.00;10.82;;;;;;;5.61;64.57;94924.47;5018128;28;20218;-63
2021/12/30 08:57:44;;;;;;;11.52;10.43;;;;;;;5.62;65.44;94930.75;5035676;28;20276;-63
2021/12/30 09:00:13;;;;;;;10.98;9.95;;;;;;;5.59;65.66;94924.00;5019340;28;20206;-63
2021/12/30 09:02:41;;;;;;;9.73;8.93;;;;;;;5.63;65.52;94938.66;5035970;28;20195;-63
2021/12/30 09:05:09;;;;;;;8.20;7.50;;;;;;;5.62;64.88;94936.22;5017688;28;20197;-63
2021/12/30 09:07:36;;;;;;;7.45;6.85;;;;;;;5.64;65.16;94936.72;5018105;28;20206;-63
2021/12/30 09:10:05;;;;;;;7.13;6.57;;;;;;;5.66;65.03;94939.91;5019473;28;20198;-66
2021/12/30 09:12:32;;;;;;;6.70;6.20;;;;;;;5.62;64.89;94941.69;5036144;28;20222;-64
2021/12/30 09:14:59;;;;;;;5.22;4.80;;;;;;;5.66;64.78;94942.66;5035354;28;20261;-66
2021/12/30 09:17:26;;;;;;;5.90;5.40;;;;;;;5.68;65.15;94943.16;5019014;28;20207;-64
2021/12/30 09:19:53;;;;;;;6.20;4.85;;;;;;;5.67;64.46;94941.53;5035735;28;20189;-62
2021/12/30 09:22:20;;;;;;;4.78;4.38;;;;;;;5.72;64.87;94949.56;5035400;28;20204;-64
2021/12/30 09:24:47;;;;;;;4.88;3.88;;;;;;;5.70;64.45;94952.66;5018556;28;20198;-63
2021/12/30 09:27:15;;;;;;;4.03;3.72;;;;;;;5.70;64.48;94943.59;5035244;28;20265;-64
2021/12/30 09:29:42;;;;;;;3.80;3.50;;;;;;;5.70;64.72;94952.66;5017955;28;20517;-63
2021/12/30 09:32:09;;;;;;;3.25;3.05;;;;;;;5.72;64.21;94949.56;5019737;28;20221;-63
2021/12/30 09:34:36;;;;;;;4.07;3.63;;;;;;;5.73;64.68;94949.25;5035301;28;20197;-69
2021/12/30 09:37:08;;;;;;;3.67;3.38;;;;;;;5.81;64.30;94953.13;5035452;28;20222;-64
2021/12/30 09:39:36;;;;;;;3.58;3.28;;;;;;;5.81;64.51;94953.13;5018659;28;20194;-63
2021/12/30 09:42:06;;;;;;;3.47;3.17;;;;;;;5.85;63.98;94954.06;5018603;28;20198;-63
2021/12/30 09:44:34;;;;;;;4.38;3.30;;;;;;;5.84;63.91;94954.38;5018579;28;20194;-63
2021/12/30 09:47:04;;;;;;;3.15;2.88;;;;;;;5.83;63.89;94960.97;5036011;28;20178;-63
2021/12/30 09:49:31;;;;;;;4.82;4.18;;;;;;;5.84;63.49;94957.09;5018370;28;20209;-67
2021/12/30 09:51:57;;;;;;;4.85;4.32;;;;;;;5.85;63.82;94966.94;5035582;28;20182;-63
2021/12/30 09:54:25;;;;;;;6.03;4.80;;;;;;;5.85;64.39;94969.69;5035955;28;20175;-63
2021/12/30 09:56:52;;;;;;;4.90;4.43;;;;;;;5.89;64.28;94974.19;5018204;28;20221;-64
2021/12/30 09:59:23;;;;;;;4.25;3.80;;;;;;;5.95;63.40;94969.34;5018332;28;20672;-63
2021/12/30 10:01:52;;;;;;;5.40;4.72;;;;;;;5.91;63.68;94974.63;5018940;28;20665;-63
2021/12/30 10:04:29;;;;;;;8.35;6.68;;;;;;;5.90;63.81;94977.72;5018663;28;20277;-65
2021/12/30 10:06:56;;;;;;;8.38;7.55;;;;;;;5.90;63.83;94974.97;5018275;28;20201;-64
2021/12/30 10:09:29;;;;;;;5.90;5.40;;;;;;;5.93;63.02;94977.09;5017601;28;20203;-64
2021/12/30 10:11:59;;;;;;;5.43;5.03;;;;;;;5.95;62.63;94970.16;5017576;28;20202;-64
2021/12/30 10:14:28;;;;;;;5.10;4.70;;;;;;;5.92;62.13;94969.97;5017939;28;20202;-65
2021/12/30 10:17:17;;;;;;;5.15;4.75;;;;;;;5.92;61.87;94969.97;5019549;28;20237;-64
2021/12/30 10:19:44;;;;;;;4.88;4.47;;;;;;;5.94;62.33;94965.81;5021265;28;20202;-64
2021/12/30 10:22:12;;;;;;;4.38;3.97;;;;;;;5.92;62.54;94967.22;5020925;28;20205;-68
2021/12/30 10:24:39;;;;;;;4.75;4.05;;;;;;;5.95;62.69;94974.81;5039227;28;20189;-64
2021/12/30 10:27:07;;;;;;;4.18;3.80;;;;;;;5.89;62.67;94970.63;5021346;28;20237;-64
2021/12/30 10:29:41;;;;;;;5.10;4.60;;;;;;;5.91;63.31;94977.38;5020856;28;20202;-64
2021/12/30 10:32:14;;;;;;;6.47;5.45;;;;;;;5.94;63.31;94974.03;5021371;28;20207;-64
2021/12/30 10:35:04;;;;;;;5.25;4.38;;;;;;;5.98;63.30;94974.97;5021214;28;20203;-64
2021/12/30 10:37:30;;;;;;;6.88;5.60;;;;;;;6.02;63.47;94975.13;5038199;28;20225;-64
2021/12/30 10:39:57;;;;;;;5.70;4.60;;;;;;;6.07;62.69;94977.72;5038562;28;20182;-65
2021/12/30 10:42:27;;;;;;;7.95;5.45;;;;;;;6.03;62.68;94977.56;5020696;28;20228;-64
2021/12/30 10:44:56;;;;;;;9.45;6.00;;;;;;;5.98;63.47;94976.91;5038198;28;20178;-64
2021/12/30 10:47:25;;;;;;;7.38;5.22;;;;;;;6.00;63.51;94982.88;5020657;28;20198;-64
2021/12/30 10:49:58;;;;;;;6.03;4.75;;;;;;;5.99;62.72;94973.88;5038115;28;20261;-64
2021/12/30 10:52:27;;;;;;;7.38;5.45;;;;;;;5.99;62.78;94981.25;5037840;28;20194;-64
2021/12/30 10:54:54;;;;;;;9.93;5.20;;;;;;;6.05;63.14;94971.75;5038348;28;20209;-65
2021/12/30 10:57:21;;;;;;;9.15;5.80;;;;;;;6.08;62.43;94984.78;5020540;28;20222;-64
2021/12/30 10:59:50;;;;;;;14.18;6.90;;;;;;;6.12;62.20;94988.47;5037889;28;20418;-64
2021/12/30 11:02:18;;;;;;;14.32;8.13;;;;;;;6.10;62.02;94987.19;5020647;28;20253;-64
2021/12/30 11:04:47;;;;;;;5.03;3.55;;;;;;;6.08;61.33;94995.75;5020380;28;20210;-64
2021/12/30 11:07:15;;;;;;;3.72;3.30;;;;;;;6.12;61.86;94993.94;5037804;28;20182;-64
2021/12/30 11:09:51;;;;;;;4.25;3.47;;;;;;;6.16;61.59;94985.88;5038666;28;20201;-64
2021/12/30 11:12:24;;;;;;;4.72;4.30;;;;;;;6.11;62.06;94994.28;5020343;28;20194;-65
2021/12/30 11:14:54;;;;;;;5.40;4.60;;;;;;;6.14;61.94;95005.41;5037255;28;20694;-65
2021/12/30 11:17:24;;;;;;;4.82;4.43;;;;;;;6.21;62.16;95007.66;5037678;28;20228;-65
2021/12/30 11:19:52;;;;;;;4.60;4.20;;;;;;;6.21;61.78;95016.66;5020093;28;20202;-65
2021/12/30 11:22:21;;;;;;;5.63;4.60;;;;;;;6.16;61.43;95019.56;5037852;28;20187;-64
2021/12/30 11:24:51;;;;;;;5.90;5.30;;;;;;;6.21;61.22;95022.13;5020373;28;20209;-64
2021/12/30 11:27:19;;;;;;;3.80;3.50;;;;;;;6.16;61.27;95035.97;5019423;28;20285;-65
2021/12/30 11:29:47;;;;;;;5.30;4.60;;;;;;;6.14;61.69;95031.97;5019897;28;20209;-65
2021/12/30 11:32:18;;;;;;;5.40;4.38;;;;;;;6.16;61.75;95029.72;5037002;28;20175;-64
2021/12/30 11:34:45;;;;;;;7.63;6.68;;;;;;;6.19;61.65;95027.13;5037858;28;20241;-63
2021/12/30 11:37:12;;;;;;;4.90;4.28;;;;;;;6.20;61.22;95033.41;5038368;28;20214;-63
2021/12/30 11:39:42;;;;;;;4.15;3.58;;;;;;;6.21;61.31;95024.06;5019769;28;20194;-63
2021/12/30 11:42:13;;;;;;;5.57;3.40;;;;;;;6.22;61.45;95020.19;5037305;28;20213;-63
2021/12/30 11:44:43;;;;;;;4.53;3.50;;;;;;;6.26;61.72;95018.41;5020143;28;20210;-63
2021/12/30 11:47:37;;;;;;;6.82;5.95;;;;;;;6.29;60.98;95019.69;5019671;28;20197;-63
2021/12/30 11:50:06;;;;;;;6.50;5.30;;;;;;;6.36;60.96;95017.25;5037014;28;20178;-65